Time;durP1;ratioP1;P1;durP2;ratioP2;P2;SDS_P1;SDS_P2;PMS_P1;PMS_P2;Temp;Humidity;BMP_temperature;BMP_pressure;BME280_temperature;BME280_humidity;BME280_pressure;Samples;Min_cycle;Max_cycle;Signal;HPM_P1;HPM_P2
2020/12/02 00:00:35;;;;;;;13.07;8.80;;;;;;;4.41;88.68;102804.00;6302678;28;20576;-80
2020/12/02 00:04:05;;;;;;;13.90;8.73;;;;;;;4.47;89.01;102835.91;6301637;28;20203;-78
2020/12/02 00:07:12;;;;;;;11.37;8.37;;;;;;;4.55;89.03;102838.81;6305587;28;20206;-79
2020/12/02 00:10:16;;;;;;;18.63;9.23;;;;;;;4.59;88.30;102834.03;6304666;28;20245;-79
2020/12/02 00:13:30;;;;;;;18.87;9.03;;;;;;;4.27;88.55;102769.16;6314160;28;20215;-78
2020/12/02 00:16:37;;;;;;;11.13;7.97;;;;;;;4.50;88.27;102814.03;6304416;28;20190;-78
2020/12/02 00:19:40;;;;;;;12.63;8.50;;;;;;;4.60;88.18;102827.63;6322113;28;20247;-80
2020/12/02 00:22:45;;;;;;;11.97;8.00;;;;;;;4.41;88.47;102831.03;6300051;28;20198;-79
2020/12/02 00:25:48;;;;;;;10.17;7.77;;;;;;;4.49;88.53;102828.56;6305395;28;20223;-79
2020/12/02 00:28:53;;;;;;;12.37;8.13;;;;;;;4.56;88.45;102834.28;6321530;28;20244;-79
2020/12/02 00:31:57;;;;;;;9.30;7.10;;;;;;;4.53;88.81;102824.59;6313542;28;20285;-78
2020/12/02 00:35:01;;;;;;;9.03;7.10;;;;;;;4.55;87.46;102814.50;6318003;28;20309;-78
2020/12/02 00:38:13;;;;;;;12.43;7.40;;;;;;;4.49;87.82;102801.53;6329562;28;20236;-80
2020/12/02 00:41:16;;;;;;;7.17;6.23;;;;;;;4.61;87.39;102819.41;6331940;28;20191;-81
2020/12/02 00:44:20;;;;;;;6.97;6.27;;;;;;;4.47;87.29;102822.38;6317359;28;20212;-78
2020/12/02 00:47:27;;;;;;;7.23;5.50;;;;;;;4.47;86.96;102818.84;6319220;28;20192;-79
2020/12/02 00:50:31;;;;;;;7.67;4.90;;;;;;;4.30;87.46;102801.34;6307816;28;20313;-80
2020/12/02 00:53:37;;;;;;;5.13;4.63;;;;;;;4.48;86.43;102832.22;6306286;28;20663;-79
2020/12/02 00:56:46;;;;;;;4.87;4.57;;;;;;;4.37;85.49;102791.72;6315612;28;20192;-79
2020/12/02 00:59:54;;;;;;;5.50;4.83;;;;;;;4.55;85.81;102825.31;6313081;28;20341;-79
2020/12/02 01:03:01;;;;;;;4.33;4.07;;;;;;;4.61;85.22;102834.75;6318972;28;20224;-79
2020/12/02 01:06:09;;;;;;;5.70;4.50;;;;;;;4.59;85.34;102840.31;6311954;28;20210;-80
2020/12/02 01:09:13;;;;;;;4.70;4.40;;;;;;;4.52;86.25;102839.06;6313767;28;20199;-80
2020/12/02 01:12:20;;;;;;;6.33;4.30;;;;;;;4.56;86.02;102840.56;6301929;28;20199;-81
2020/12/02 01:15:24;;;;;;;9.90;4.40;;;;;;;4.33;86.64;102822.72;6311336;28;20218;-78
2020/12/02 01:18:28;;;;;;;4.27;3.97;;;;;;;4.40;86.32;102830.16;6313834;28;20243;-79
2020/12/02 01:21:36;;;;;;;4.50;3.93;;;;;;;4.39;86.83;102827.63;6330936;28;20197;-79
2020/12/02 01:24:49;;;;;;;3.50;3.40;;;;;;;4.43;85.43;102834.47;6318650;28;20571;-80
2020/12/02 01:27:57;;;;;;;4.70;3.93;;;;;;;4.28;85.08;102809.59;6323809;28;20643;-78
2020/12/02 01:31:02;;;;;;;4.27;4.00;;;;;;;4.42;85.01;102827.31;6319054;28;20192;-78
2020/12/02 01:34:09;;;;;;;3.23;3.03;;;;;;;4.45;85.19;102824.38;6307625;28;20681;-79
2020/12/02 01:37:27;;;;;;;3.77;3.40;;;;;;;4.29;85.67;102821.22;6302329;28;20701;-78
2020/12/02 01:40:34;;;;;;;3.30;3.10;;;;;;;4.22;85.73;102826.31;6299772;28;20200;-78
2020/12/02 01:43:38;;;;;;;2.63;2.50;;;;;;;4.27;84.96;102817.81;6304866;28;20199;-77
2020/12/02 01:46:55;;;;;;;3.30;3.10;;;;;;;4.26;85.72;102816.94;6316757;28;20197;-79
2020/12/02 01:50:06;;;;;;;2.90;2.80;;;;;;;4.33;84.31;102828.13;6319624;28;20278;-79
2020/12/02 01:53:25;;;;;;;2.47;2.47;;;;;;;4.26;84.01;102826.91;6313024;28;20255;-79
2020/12/02 01:56:36;;;;;;;2.80;2.80;;;;;;;4.12;85.54;102824.50;6310755;28;20697;-80
2020/12/02 01:59:50;;;;;;;2.40;2.30;;;;;;;4.24;84.88;102828.88;6324451;28;20233;-79
2020/12/02 02:03:04;;;;;;;2.70;2.60;;;;;;;4.34;84.31;102822.56;6340780;28;20234;-81
2020/12/02 02:06:13;;;;;;;3.07;2.87;;;;;;;3.92;85.26;102790.16;6343353;27;20212;-79
2020/12/02 02:09:18;;;;;;;1.90;1.90;;;;;;;3.93;85.90;102821.59;6313171;28;20211;-79
2020/12/02 02:13:01;;;;;;;1.90;1.90;;;;;;;3.85;86.37;102826.78;6317956;28;20215;-82
2020/12/02 02:16:11;;;;;;;2.07;2.07;;;;;;;3.92;86.25;102830.69;6304577;28;20219;-79
2020/12/02 02:19:19;;;;;;;1.90;1.90;;;;;;;3.96;85.88;102835.69;6354754;27;20184;-78
2020/12/02 02:22:23;;;;;;;2.03;2.03;;;;;;;3.93;86.37;102829.72;6348786;27;20209;-81
2020/12/02 02:25:26;;;;;;;1.70;1.70;;;;;;;3.70;86.32;102820.75;6345447;28;20196;-78
2020/12/02 02:28:34;;;;;;;1.70;1.70;;;;;;;4.12;84.71;102835.28;6344361;28;20191;-79
2020/12/02 02:31:45;;;;;;;1.50;1.50;;;;;;;4.15;84.90;102835.03;6338129;28;20203;-80
2020/12/02 02:34:52;;;;;;;1.70;1.70;;;;;;;3.88;85.66;102837.34;6330257;28;20218;-79
2020/12/02 02:37:56;;;;;;;1.77;1.77;;;;;;;3.99;85.57;102829.19;6329888;27;20194;-79
2020/12/02 02:40:59;;;;;;;1.80;1.70;;;;;;;4.19;84.45;102836.50;6339373;27;20200;-78
2020/12/02 02:44:04;;;;;;;1.77;1.77;;;;;;;4.15;84.53;102835.03;6342509;28;20214;-79
2020/12/02 02:47:11;;;;;;;1.77;1.77;;;;;;;4.01;84.38;102827.22;6335357;28;20205;-79
2020/12/02 02:50:20;;;;;;;1.97;1.97;;;;;;;4.26;84.52;102832.31;6349186;28;20326;-80
2020/12/02 02:53:27;;;;;;;1.90;1.90;;;;;;;3.96;84.79;102821.31;6324705;28;20194;-79
2020/12/02 02:56:31;;;;;;;1.80;1.80;;;;;;;4.28;84.78;102836.63;6323080;28;20210;-79
2020/12/02 02:59:35;;;;;;;1.80;1.80;;;;;;;4.33;83.59;102833.53;6340050;27;20235;-79
2020/12/02 03:02:39;;;;;;;1.70;1.60;;;;;;;4.17;84.86;102816.88;6318456;28;20210;-79
2020/12/02 03:05:44;;;;;;;2.00;2.00;;;;;;;4.26;84.88;102833.16;6319358;28;20300;-78
2020/12/02 03:08:49;;;;;;;1.90;1.90;;;;;;;4.33;84.54;102838.94;6345111;28;20666;-80
2020/12/02 03:11:54;;;;;;;1.80;1.80;;;;;;;4.13;84.87;102826.22;6350942;27;20211;-79
2020/12/02 03:14:59;;;;;;;1.80;1.80;;;;;;;4.21;85.18;102829.97;6330138;28;20899;-79
2020/12/02 03:18:03;;;;;;;1.97;1.97;;;;;;;4.12;84.42;102825.34;6329523;28;20481;-78
2020/12/02 03:21:11;;;;;;;2.13;2.03;;;;;;;4.25;84.87;102827.88;6323568;28;20590;-79
2020/12/02 03:24:16;;;;;;;2.50;2.30;;;;;;;4.24;83.42;102796.44;6341426;28;20220;-80
2020/12/02 03:27:19;;;;;;;2.50;2.40;;;;;;;4.40;84.19;102834.72;6338954;28;20189;-79
2020/12/02 03:30:24;;;;;;;2.40;2.40;;;;;;;4.28;84.32;102815.00;6333735;28;20190;-78
2020/12/02 03:33:33;;;;;;;2.30;2.30;;;;;;;4.35;84.48;102809.91;6332156;28;20251;-79
2020/12/02 03:36:37;;;;;;;2.50;2.50;;;;;;;4.13;85.38;102804.59;6319618;28;20239;-79
2020/12/02 03:39:41;;;;;;;2.40;2.40;;;;;;;4.16;85.79;102805.19;6340434;28;20636;-78
2020/12/02 03:42:45;;;;;;;2.27;2.27;;;;;;;4.21;85.21;102802.97;6337783;28;20278;-79
2020/12/02 03:45:50;;;;;;;2.60;2.60;;;;;;;4.13;85.27;102785.69;6328324;28;20224;-79
2020/12/02 03:48:54;;;;;;;2.40;2.40;;;;;;;4.16;85.04;102793.53;6329833;28;20335;-77
2020/12/02 03:51:57;;;;;;;2.70;2.70;;;;;;;4.22;84.26;102790.31;6333858;28;20202;-78
2020/12/02 03:55:01;;;;;;;3.13;2.93;;;;;;;4.20;85.54;102795.00;6315635;28;20767;-79
2020/12/02 03:58:06;;;;;;;3.47;3.37;;;;;;;4.30;84.58;102790.53;6346146;27;20647;-80
2020/12/02 04:01:12;;;;;;;3.77;3.40;;;;;;;4.26;84.80;102778.28;6342462;28;20232;-77
2020/12/02 04:04:15;;;;;;;3.63;3.37;;;;;;;4.23;85.60;102775.84;6344933;28;20326;-80
2020/12/02 04:07:19;;;;;;;4.00;3.80;;;;;;;4.26;84.90;102767.47;6318294;28;20240;-78
2020/12/02 04:10:22;;;;;;;4.73;4.43;;;;;;;4.29;85.06;102778.00;6340383;28;20558;-77
2020/12/02 04:13:26;;;;;;;5.30;4.80;;;;;;;4.31;85.12;102776.03;6347040;27;20185;-79
2020/12/02 04:16:30;;;;;;;6.47;5.13;;;;;;;4.39;84.68;102768.16;6335486;27;20229;-78
2020/12/02 04:19:35;;;;;;;5.40;5.10;;;;;;;4.28;85.05;102776.28;6342688;28;20314;-77
2020/12/02 04:22:39;;;;;;;5.57;5.10;;;;;;;4.26;85.76;102773.72;6320042;28;20250;-80
2020/12/02 04:25:42;;;;;;;6.57;5.90;;;;;;;4.19;85.71;102785.16;6361603;27;20208;-80
2020/12/02 04:28:45;;;;;;;5.90;5.50;;;;;;;4.37;85.07;102786.31;6347819;28;20201;-77
2020/12/02 04:31:49;;;;;;;5.50;5.20;;;;;;;4.35;85.25;102785.59;6364484;27;20197;-80
2020/12/02 04:34:53;;;;;;;6.07;5.57;;;;;;;4.38;84.78;102771.81;6333553;27;20403;-79
2020/12/02 04:37:56;;;;;;;5.93;5.53;;;;;;;4.34;85.55;102775.75;6345597;27;20192;-78
2020/12/02 04:41:04;;;;;;;5.43;5.13;;;;;;;4.27;85.80;102769.16;6333578;28;20207;-80
2020/12/02 04:44:10;;;;;;;6.00;5.53;;;;;;;4.11;85.95;102763.38;6332596;28;20197;-78
2020/12/02 04:47:16;;;;;;;6.27;5.87;;;;;;;4.36;85.53;102773.81;6328193;28;20584;-78
2020/12/02 04:50:24;;;;;;;6.10;5.60;;;;;;;4.13;85.33;102726.25;6323154;28;20352;-78
2020/12/02 04:53:28;;;;;;;6.23;5.63;;;;;;;4.03;84.87;102718.06;6316279;28;20197;-80
2020/12/02 04:56:32;;;;;;;6.47;5.80;;;;;;;4.16;84.94;102769.22;6336523;28;20724;-79
2020/12/02 04:59:38;;;;;;;6.10;5.60;;;;;;;4.12;85.50;102754.25;6347451;28;20228;-79
2020/12/02 05:02:42;;;;;;;5.93;5.43;;;;;;;4.25;85.08;102760.34;6325778;28;20205;-79
2020/12/02 05:05:45;;;;;;;6.40;5.90;;;;;;;4.32;85.16;102761.53;6344037;27;20210;-79
2020/12/02 05:08:49;;;;;;;6.27;5.73;;;;;;;4.34;85.21;102770.34;6340834;28;20189;-79
2020/12/02 05:12:00;;;;;;;6.10;5.70;;;;;;;4.35;84.17;102761.28;6311716;28;20219;-80
2020/12/02 05:15:18;;;;;;;6.60;6.00;;;;;;;4.43;84.13;102769.59;6329829;27;20204;-79
2020/12/02 05:18:27;;;;;;;6.27;5.67;;;;;;;4.30;84.45;102747.28;6325592;28;20557;-79
2020/12/02 05:21:40;;;;;;;7.33;6.73;;;;;;;4.35;84.98;102772.94;6340792;27;20220;-77
2020/12/02 05:24:47;;;;;;;7.07;6.37;;;;;;;3.77;86.51;102722.94;6316772;28;20659;-80
2020/12/02 05:27:55;;;;;;;6.57;5.93;;;;;;;4.09;85.97;102760.75;6325738;28;20276;-78
2020/12/02 05:31:05;;;;;;;8.23;6.23;;;;;;;4.12;85.95;102775.88;6331594;27;20314;-79
2020/12/02 05:34:15;;;;;;;9.30;6.80;;;;;;;4.16;86.37;102767.38;6324978;28;20221;-77
2020/12/02 05:37:30;;;;;;;7.07;5.90;;;;;;;4.12;85.82;102759.66;6326900;28;20330;-79
2020/12/02 05:40:35;;;;;;;8.17;6.60;;;;;;;4.34;85.10;102770.34;6334699;27;20226;-80
2020/12/02 05:43:45;;;;;;;7.17;6.47;;;;;;;4.05;85.70;102755.75;6333718;28;20196;-79
2020/12/02 05:46:54;;;;;;;7.30;6.17;;;;;;;4.20;85.73;102770.69;6325148;28;20226;-79
2020/12/02 05:50:02;;;;;;;6.97;6.33;;;;;;;4.25;86.04;102761.19;6327784;27;20309;-79
2020/12/02 05:53:18;;;;;;;6.67;5.97;;;;;;;4.18;86.18;102765.41;6329537;27;20197;-79
2020/12/02 05:56:21;;;;;;;12.83;7.07;;;;;;;4.13;86.00;102769.47;6341769;27;20306;-79
2020/12/02 05:59:25;;;;;;;8.37;6.87;;;;;;;4.27;85.78;102763.75;6344485;28;20227;-80
2020/12/02 06:02:29;;;;;;;8.00;6.83;;;;;;;4.23;85.93;102767.72;6351042;28;20261;-79
2020/12/02 06:05:33;;;;;;;8.73;6.90;;;;;;;4.11;86.30;102763.38;6336398;27;20205;-80
2020/12/02 06:08:40;;;;;;;8.33;7.07;;;;;;;4.16;86.42;102766.53;6335977;28;20236;-80
2020/12/02 06:11:43;;;;;;;7.17;6.47;;;;;;;4.08;85.76;102720.38;6359678;28;20242;-80
2020/12/02 06:14:48;;;;;;;9.33;6.80;;;;;;;4.14;86.38;102773.88;6346731;27;20212;-79
2020/12/02 06:18:13;;;;;;;9.03;7.03;;;;;;;4.27;85.90;102767.31;6320004;28;20238;-77
2020/12/02 06:21:34;;;;;;;13.90;7.13;;;;;;;4.31;85.90;102759.84;6334132;27;20200;-78
2020/12/02 06:24:41;;;;;;;10.37;7.17;;;;;;;4.28;86.30;102760.09;6313988;28;20651;-79
2020/12/02 06:27:45;;;;;;;10.53;7.37;;;;;;;4.37;85.44;102759.28;6328679;28;20274;-78
2020/12/02 06:30:56;;;;;;;12.30;8.43;;;;;;;4.34;85.68;102764.94;6336935;28;20199;-79
2020/12/02 06:34:20;;;;;;;10.30;7.63;;;;;;;4.25;86.19;102754.94;6357563;27;20606;-77
2020/12/02 06:37:26;;;;;;;12.17;7.73;;;;;;;4.24;85.86;102754.06;6326563;28;20742;-76
2020/12/02 06:40:29;;;;;;;9.33;7.63;;;;;;;4.17;86.74;102765.53;6334486;27;20192;-79
2020/12/02 06:43:44;;;;;;;13.13;8.07;;;;;;;4.26;85.89;102748.56;6328838;28;20291;-79
2020/12/02 06:47:27;;;;;;;10.50;7.63;;;;;;;4.29;86.15;102772.59;6324781;28;20205;-78
2020/12/02 06:50:34;;;;;;;10.40;7.63;;;;;;;4.56;84.84;102770.25;6313983;28;20224;-77
2020/12/02 06:53:39;;;;;;;15.43;8.00;;;;;;;4.02;85.45;102688.47;6326422;28;20203;-79
2020/12/02 06:56:43;;;;;;;11.13;7.50;;;;;;;4.45;85.11;102751.38;6305781;28;20237;-78
2020/12/02 06:59:51;;;;;;;11.50;8.40;;;;;;;4.40;85.58;102759.91;6333902;28;20255;-79
2020/12/02 07:03:00;;;;;;;9.80;7.80;;;;;;;4.50;85.10;102756.41;6364189;27;20887;-78
2020/12/02 07:06:10;;;;;;;14.17;7.67;;;;;;;4.56;84.56;102764.00;6338099;27;20211;-79
2020/12/02 07:09:16;;;;;;;9.90;7.17;;;;;;;4.23;86.46;102756.91;6322194;28;20723;-79
2020/12/02 07:12:23;;;;;;;8.93;7.53;;;;;;;4.59;84.94;102764.59;6344917;28;20491;-79
2020/12/02 07:15:27;;;;;;;10.17;7.37;;;;;;;4.46;85.03;102766.63;6319055;28;20657;-79
2020/12/02 07:18:34;;;;;;;18.50;7.97;;;;;;;4.58;83.93;102762.88;6328476;28;20215;-79
2020/12/02 07:21:42;;;;;;;10.77;6.97;;;;;;;4.36;85.47;102768.41;6310099;28;20207;-79
2020/12/02 07:24:48;;;;;;;10.33;7.50;;;;;;;4.11;85.87;102739.03;6329657;28;20197;-78
2020/12/02 07:27:51;;;;;;;9.40;7.30;;;;;;;4.23;85.69;102751.50;6327297;28;20687;-79
2020/12/02 07:30:55;;;;;;;8.50;7.13;;;;;;;4.35;86.42;102766.69;6319501;28;20616;-78
2020/12/02 07:34:05;;;;;;;11.17;6.53;;;;;;;4.28;85.90;102762.78;6344890;28;20196;-80
2020/12/02 07:37:13;;;;;;;12.93;7.67;;;;;;;4.31;86.72;102770.63;6345556;28;20223;-78
2020/12/02 07:40:38;;;;;;;10.47;7.00;;;;;;;4.56;84.69;102769.41;6320855;28;20656;-79
2020/12/02 07:43:43;;;;;;;10.80;7.27;;;;;;;4.42;84.72;102740.84;6338812;28;20710;-78
2020/12/02 07:46:47;;;;;;;9.97;7.40;;;;;;;4.48;85.41;102767.34;6335089;28;20200;-78
2020/12/02 07:49:59;;;;;;;13.03;7.60;;;;;;;4.46;85.23;102768.47;6346485;28;20274;-78
2020/12/02 07:53:11;;;;;;;11.87;7.87;;;;;;;4.57;85.00;102763.00;6332931;28;20203;-79
2020/12/02 07:56:25;;;;;;;11.97;7.73;;;;;;;4.60;84.11;102755.47;6338196;28;20210;-79
2020/12/02 07:59:31;;;;;;;10.43;8.33;;;;;;;4.29;85.38;102734.75;6339174;27;20676;-79
2020/12/02 08:02:39;;;;;;;9.37;7.80;;;;;;;4.57;84.08;102755.72;6347126;27;20375;-78
2020/12/02 08:05:53;;;;;;;9.60;7.53;;;;;;;4.61;84.69;102751.81;6328527;27;20209;-79
2020/12/02 08:08:58;;;;;;;13.23;7.50;;;;;;;4.35;85.16;102728.84;6344144;27;20202;-79
2020/12/02 08:12:04;;;;;;;10.33;7.87;;;;;;;4.31;85.41;102716.59;6327414;28;20217;-79
2020/12/02 08:15:13;;;;;;;12.07;7.53;;;;;;;4.53;85.28;102748.91;6358465;27;20192;-79
2020/12/02 08:18:21;;;;;;;15.07;8.63;;;;;;;4.53;85.30;102746.19;6340585;27;20216;-80
2020/12/02 08:21:28;;;;;;;8.80;7.17;;;;;;;4.64;84.84;102751.53;6336185;28;20817;-79
2020/12/02 08:24:40;;;;;;;11.93;7.47;;;;;;;4.58;84.57;102746.66;6345572;27;20294;-79
2020/12/02 08:27:49;;;;;;;9.87;7.47;;;;;;;4.34;86.12;102748.72;6321376;28;20205;-79
2020/12/02 08:31:04;;;;;;;10.60;7.70;;;;;;;4.36;86.44;102746.78;6333328;28;20335;-79
2020/12/02 08:34:11;;;;;;;10.20;7.57;;;;;;;4.34;86.33;102748.72;6317534;28;20240;-78
2020/12/02 08:37:34;;;;;;;12.53;7.47;;;;;;;4.38;86.58;102740.25;6326252;27;20217;-79
2020/12/02 08:40:43;;;;;;;9.20;7.43;;;;;;;4.11;86.31;102682.31;6323900;27;20198;-79
2020/12/02 08:43:47;;;;;;;10.90;7.40;;;;;;;4.56;85.65;102743.22;6339408;28;20199;-78
2020/12/02 08:46:56;;;;;;;11.93;7.47;;;;;;;4.49;85.75;102736.63;6337802;27;20202;-78
2020/12/02 08:49:59;;;;;;;15.90;7.83;;;;;;;4.45;85.64;102705.44;6343646;27;20794;-79
2020/12/02 08:53:03;;;;;;;10.53;7.73;;;;;;;4.54;86.23;102722.72;6339340;28;20196;-79
2020/12/02 08:56:21;;;;;;;12.67;7.57;;;;;;;4.62;85.67;102726.50;6337815;28;20191;-78
2020/12/02 08:59:25;;;;;;;16.20;8.20;;;;;;;4.75;84.89;102721.69;6338493;28;20324;-78
2020/12/02 09:02:29;;;;;;;9.50;8.47;;;;;;;4.65;85.46;102704.56;6343573;27;20196;-79
2020/12/02 09:05:32;;;;;;;12.50;8.00;;;;;;;4.78;84.15;102694.41;6345245;27;20279;-79
2020/12/02 09:08:35;;;;;;;15.93;8.93;;;;;;;4.98;83.64;102709.72;6327369;28;20282;-78
2020/12/02 09:11:39;;;;;;;8.53;7.63;;;;;;;4.89;84.18;102694.31;6346882;27;20498;-79
2020/12/02 09:14:43;;;;;;;12.57;8.80;;;;;;;5.03;83.48;102699.34;6315170;28;20283;-78
2020/12/02 09:17:46;;;;;;;10.80;8.37;;;;;;;4.68;83.65;102639.41;6336455;27;20214;-79
2020/12/02 09:20:49;;;;;;;10.53;8.17;;;;;;;4.95;83.84;102669.44;6335055;27;20200;-79
2020/12/02 09:23:53;;;;;;;13.13;9.07;;;;;;;4.91;84.52;102683.34;6347791;27;20195;-79
2020/12/02 09:26:57;;;;;;;11.50;8.83;;;;;;;5.07;84.45;102689.97;6330757;27;20205;-79
2020/12/02 09:30:01;;;;;;;12.37;8.77;;;;;;;5.04;84.06;102682.13;6322596;28;20194;-79
2020/12/02 09:33:10;;;;;;;17.33;9.23;;;;;;;5.02;84.47;102673.31;6339179;27;20283;-80
2020/12/02 09:36:17;;;;;;;12.50;8.80;;;;;;;4.83;84.76;102646.16;6344250;27;20199;-79
2020/12/02 09:39:21;;;;;;;17.00;8.83;;;;;;;5.10;84.85;102669.91;6332655;28;20404;-78
2020/12/02 09:42:42;;;;;;;14.60;8.60;;;;;;;5.15;84.47;102669.50;6336434;28;20199;-77
2020/12/02 09:45:56;;;;;;;16.07;8.37;;;;;;;5.17;84.59;102667.50;6341651;28;20623;-78
2020/12/02 09:49:00;;;;;;;12.93;8.70;;;;;;;5.29;83.97;102655.59;6341211;28;20600;-80
2020/12/02 09:52:35;;;;;;;13.30;7.97;;;;;;;5.36;83.40;102662.16;6337206;27;20264;-79
2020/12/02 09:55:39;;;;;;;14.60;9.03;;;;;;;4.81;83.83;102580.53;6334400;28;20324;-79
2020/12/02 09:58:42;;;;;;;16.57;8.50;;;;;;;5.29;84.06;102640.19;6335377;27;20231;-78
2020/12/02 10:02:01;;;;;;;11.43;8.67;;;;;;;5.18;83.82;102620.50;6327263;28;20263;-79
2020/12/02 10:05:28;;;;;;;12.37;8.57;;;;;;;5.41;83.52;102638.22;6337024;28;20196;-79
2020/12/02 10:08:47;;;;;;;14.47;8.87;;;;;;;5.36;84.50;102645.91;6327998;28;20204;-78
2020/12/02 10:11:59;;;;;;;12.90;8.97;;;;;;;5.28;84.31;102632.22;6314958;28;20259;-80
2020/12/02 10:15:26;;;;;;;14.70;8.70;;;;;;;5.34;84.39;102637.09;6307116;28;20280;-79
2020/12/02 10:18:47;;;;;;;10.77;8.07;;;;;;;5.47;84.27;102632.25;6326186;28;20802;-79
2020/12/02 10:22:22;;;;;;;12.67;8.83;;;;;;;5.41;84.29;102627.41;6325588;28;20221;-79
2020/12/02 10:25:50;;;;;;;12.33;8.53;;;;;;;5.32;84.95;102601.16;6306092;28;20204;-79
2020/12/02 10:28:57;;;;;;;15.17;8.83;;;;;;;5.43;84.33;102611.88;6304303;28;20256;-79
2020/12/02 10:32:14;;;;;;;10.80;9.13;;;;;;;5.54;83.94;102617.16;6299571;28;20221;-79
2020/12/02 10:35:19;;;;;;;12.30;9.20;;;;;;;5.34;84.43;102582.94;6318415;28;20190;-79
2020/12/02 10:38:34;;;;;;;12.73;8.73;;;;;;;5.34;85.44;102599.19;6319682;28;20221;-79
2020/12/02 10:41:52;;;;;;;11.80;8.97;;;;;;;5.45;84.94;102593.63;6308062;28;20268;-77
2020/12/02 10:45:08;;;;;;;12.53;9.00;;;;;;;5.40;84.09;102571.53;6290014;28;20307;-80
2020/12/02 10:48:40;;;;;;;13.17;8.60;;;;;;;5.67;83.58;102579.81;6320500;28;20583;-80
2020/12/02 10:51:50;;;;;;;17.00;8.63;;;;;;;5.44;84.89;102583.81;6320801;28;20257;-79
2020/12/02 10:54:53;;;;;;;16.27;8.87;;;;;;;5.60;84.32;102578.66;6306595;28;20586;-80
2020/12/02 10:57:59;;;;;;;13.53;8.43;;;;;;;5.55;84.80;102570.09;6302274;28;20554;-78
2020/12/02 11:01:07;;;;;;;14.37;9.23;;;;;;;5.56;84.70;102561.00;6328817;28;20222;-79
2020/12/02 11:04:16;;;;;;;12.53;8.73;;;;;;;5.71;83.83;102559.56;6333471;28;20192;-79
2020/12/02 11:07:35;;;;;;;17.87;8.80;;;;;;;5.59;84.89;102566.13;6339761;28;20214;-79
2020/12/02 11:10:51;;;;;;;12.20;8.90;;;;;;;5.63;84.58;102568.41;6340427;28;20196;-78
2020/12/02 11:14:05;;;;;;;15.97;9.17;;;;;;;5.45;84.68;102536.75;6335739;28;20202;-78
2020/12/02 11:17:17;;;;;;;14.03;9.50;;;;;;;5.82;84.12;102556.72;6338398;28;20312;-78
2020/12/02 11:20:26;;;;;;;12.93;8.93;;;;;;;5.79;84.22;102557.00;6333174;28;20184;-79
2020/12/02 11:23:51;;;;;;;16.20;8.80;;;;;;;5.80;84.10;102553.31;6339891;28;20193;-76
2020/12/02 11:26:54;;;;;;;15.17;9.17;;;;;;;5.65;84.09;102527.63;6353162;28;20298;-79
2020/12/02 11:29:58;;;;;;;16.40;9.23;;;;;;;5.81;84.48;102544.16;6335163;28;20204;-78
2020/12/02 11:33:28;;;;;;;15.27;9.63;;;;;;;5.75;84.83;102533.91;6317798;28;20275;-77
2020/12/02 11:36:41;;;;;;;19.43;9.97;;;;;;;5.95;84.02;102535.63;6326825;28;20242;-78
2020/12/02 11:40:06;;;;;;;17.83;10.00;;;;;;;5.63;84.84;102502.56;6325432;28;20251;-79
2020/12/02 11:43:24;;;;;;;16.73;9.70;;;;;;;5.72;85.78;102523.38;6346880;28;20420;-78
2020/12/02 11:46:28;;;;;;;13.17;9.87;;;;;;;5.73;85.76;102514.22;6317994;28;20231;-78
2020/12/02 11:49:36;;;;;;;13.90;9.87;;;;;;;5.63;85.41;102486.31;6317854;28;20310;-78
2020/12/02 11:52:56;;;;;;;13.80;9.83;;;;;;;5.60;86.68;102513.66;6323157;28;20227;-80
2020/12/02 11:56:10;;;;;;;14.37;9.43;;;;;;;5.63;86.24;102513.38;6337154;28;20292;-77
2020/12/02 11:59:20;;;;;;;12.73;9.33;;;;;;;5.69;85.69;102491.16;6326958;28;20242;-79
2020/12/02 12:02:52;;;;;;;10.87;8.90;;;;;;;5.79;84.50;102486.56;6350105;28;20200;-79
2020/12/02 12:06:05;;;;;;;9.63;7.93;;;;;;;5.87;84.43;102511.13;6318684;28;20217;-78
2020/12/02 12:09:17;;;;;;;11.00;7.77;;;;;;;5.87;83.90;102483.16;6330770;28;20704;-79
2020/12/02 12:12:32;;;;;;;12.37;8.63;;;;;;;5.85;84.35;102496.88;6322695;28;20228;-79
2020/12/02 12:15:37;;;;;;;10.87;8.13;;;;;;;5.99;83.64;102500.94;6337559;28;20673;-78
2020/12/02 12:18:50;;;;;;;10.87;7.67;;;;;;;5.97;82.92;102498.41;6328585;28;20216;-79
2020/12/02 12:22:15;;;;;;;8.57;6.77;;;;;;;5.32;85.19;102438.75;6327179;28;20204;-80
2020/12/02 12:25:22;;;;;;;8.20;7.23;;;;;;;5.83;83.78;102487.97;6317165;28;20201;-78
2020/12/02 12:28:30;;;;;;;8.13;7.10;;;;;;;5.87;83.36;102473.19;6323480;27;20244;-79
2020/12/02 12:31:37;;;;;;;8.47;7.23;;;;;;;5.78;84.20;102474.00;6371197;27;20190;-78
2020/12/02 12:34:49;;;;;;;9.03;7.40;;;;;;;5.95;83.34;102473.31;6351875;27;20190;-79
2020/12/02 12:38:07;;;;;;;11.40;7.20;;;;;;;5.80;83.95;102472.03;6329986;28;20623;-79
2020/12/02 12:41:19;;;;;;;8.87;7.70;;;;;;;5.67;84.99;102476.91;6342906;28;20203;-78
2020/12/02 12:44:28;;;;;;;9.37;7.87;;;;;;;5.67;85.75;102471.50;6342116;27;20582;-78
2020/12/02 12:47:34;;;;;;;10.60;7.33;;;;;;;5.37;86.54;102442.75;6320908;28;20757;-80
2020/12/02 12:50:37;;;;;;;9.67;7.23;;;;;;;5.67;86.68;102476.91;6336064;27;20376;-79
2020/12/02 12:53:42;;;;;;;7.90;6.83;;;;;;;5.78;85.98;102463.19;6336065;27;20211;-79
2020/12/02 12:56:46;;;;;;;8.23;6.63;;;;;;;5.40;88.25;102452.44;6354493;28;20609;-78
2020/12/02 12:59:53;;;;;;;8.37;7.17;;;;;;;5.52;87.81;102451.28;6335670;28;20255;-80
2020/12/02 13:03:15;;;;;;;7.97;7.13;;;;;;;5.68;86.56;102446.09;6352352;27;20200;-81
2020/12/02 13:06:32;;;;;;;8.73;7.30;;;;;;;5.57;86.93;102433.59;6343565;28;20211;-79
2020/12/02 13:09:51;;;;;;;8.97;7.43;;;;;;;5.56;86.91;102422.91;6310754;28;20687;-78
2020/12/02 13:13:14;;;;;;;7.27;6.67;;;;;;;5.50;87.04;102409.94;6324506;28;20351;-78
2020/12/02 13:16:24;;;;;;;7.20;6.53;;;;;;;5.61;87.51;102435.03;6318998;28;20544;-79
2020/12/02 13:19:39;;;;;;;8.93;6.77;;;;;;;5.61;87.41;102424.19;6327233;28;20230;-77
2020/12/02 13:22:54;;;;;;;11.17;7.43;;;;;;;5.77;86.08;102420.00;6325468;27;20647;-77
2020/12/02 13:26:03;;;;;;;8.30;7.07;;;;;;;5.67;87.01;102417.34;6330771;28;20286;-78
2020/12/02 13:29:16;;;;;;;8.20;6.73;;;;;;;5.65;86.64;102403.06;6310277;28;20349;-79
2020/12/02 13:32:30;;;;;;;8.73;6.90;;;;;;;5.79;85.89;102416.16;6341466;27;20207;-78
2020/12/02 13:35:35;;;;;;;6.30;5.70;;;;;;;5.84;84.84;102394.03;6305554;28;20699;-79
2020/12/02 13:38:38;;;;;;;6.30;5.70;;;;;;;5.77;84.43;102357.72;6322804;27;20224;-77
2020/12/02 13:41:48;;;;;;;7.00;6.30;;;;;;;5.55;85.64;102375.16;6318395;27;20200;-79
2020/12/02 13:44:59;;;;;;;7.33;6.23;;;;;;;5.49;85.82;102390.16;6341721;28;20271;-80
2020/12/02 13:48:09;;;;;;;9.73;5.83;;;;;;;5.40;86.60;102387.47;6332082;27;20631;-79
2020/12/02 13:51:27;;;;;;;6.47;5.90;;;;;;;5.56;85.99;102387.72;6336632;28;20234;-79
2020/12/02 13:54:42;;;;;;;6.20;5.60;;;;;;;5.63;84.97;102378.00;6343501;27;20291;-79
2020/12/02 13:57:52;;;;;;;5.60;5.10;;;;;;;5.61;84.99;102390.84;6336976;28;20209;-79
2020/12/02 14:01:09;;;;;;;8.80;6.07;;;;;;;5.58;84.63;102374.88;6310698;28;20229;-80
2020/12/02 14:04:34;;;;;;;6.00;5.40;;;;;;;5.66;84.56;102377.72;6313160;28;20198;-79
2020/12/02 14:07:41;;;;;;;6.47;5.63;;;;;;;5.74;84.05;102375.13;6310771;28;20289;-79
2020/12/02 14:10:47;;;;;;;6.47;5.97;;;;;;;5.47;85.31;102380.50;6311849;28;20204;-79
2020/12/02 14:13:51;;;;;;;8.13;6.17;;;;;;;5.50;86.14;102367.50;6323320;28;20247;-79
2020/12/02 14:16:55;;;;;;;182.27;88.47;;;;;;;5.55;85.82;102358.91;6312420;28;20255;-79
2020/12/02 14:19:59;;;;;;;21.40;13.00;;;;;;;5.53;86.14;102361.78;6309212;28;20341;-78
2020/12/02 14:23:03;;;;;;;7.33;6.60;;;;;;;5.48;86.39;102352.41;6313571;28;20216;-78
2020/12/02 14:26:09;;;;;;;6.50;5.90;;;;;;;5.54;85.83;102357.22;6299139;28;20197;-78
2020/12/02 14:29:12;;;;;;;6.30;5.63;;;;;;;5.54;86.00;102351.81;6305557;28;20215;-80
2020/12/02 14:32:17;;;;;;;6.40;5.80;;;;;;;5.49;85.93;102338.72;6305459;28;20262;-79
2020/12/02 14:35:38;;;;;;;6.47;5.87;;;;;;;5.51;86.20;102330.44;6323549;28;20277;-79
2020/12/02 14:38:47;;;;;;;6.13;5.63;;;;;;;5.51;86.10;102333.16;6310216;28;20226;-79
2020/12/02 14:41:50;;;;;;;6.90;5.90;;;;;;;5.53;85.30;102326.59;6303366;28;20202;-80
2020/12/02 14:44:53;;;;;;;6.03;5.53;;;;;;;5.61;84.89;102323.13;6311645;28;20209;-78